View Sortable Currents For Network
ASOSAWOSCoCoRaHSCOOPDCPISUSM
SchoolNetOtherSCANMy FavoritesBy StateRWIS
RWIS SurfaceRWIS TrafficRWIS SoilBy NWS WFOUSCRN

Current AWOS Conditions

** This page will automatically refresh every five minutes.
Sorted by: (Site Name)     Click on a column to sort it.

Add ID: Name: Ob Time   Wind [knots]   Rainfall
Temp (Hi / Lo) DewP Feels RH% Dir Speed Peak Gust
@ Time
Alti Vsby Hour Today
EBSWebster City10:45 PM 70(82/63) 66 72 87 40 14G2130 @ 10:35 PM 29.93 2.5 0 1.32
AWGWASHINGTON10:55 PM 72(82/63) 68 74 87 150 726 @ 03:55 PM 29.91 10 0 0.16
VTIVINTON11:00 PM 71(76/61) 68 73 90 120 719 @ 04:40 PM 29.92 10 0
SLBStorm Lake10:55 PM 66(82/61) 63 67 90 20 4G1131 @ 09:55 PM 29.93 10 0 0.72
SDASHENANDOAH MUNI10:55 PM 81(95/66) 68 84 65 160 8G1422 @ 03:30 PM 29.85 10 0
SHLSHELDON10:55 PM 63(77/61) 63 64 100 100 11G1633 @ 07:40 PM 29.88 3 0.07 0.78
RDKRED OAK10:55 PM 81(91/66) 68 84 65 180 819 @ 05:50 PM 29.85 10 0
PROPerry 17 Sep 03:30 PMSite is Offline
PEAPELLA10:55 PM 71(74/64) 67 73 87 140 512 @ 09:35 AM 29.89 10 0
OOAOskaloosa10:45 PM 70(86/64) 67 72 90 160 721 @ 05:05 PM 29.89 10 0 0.14
I75Osceola10:55 PM 75(90/66) 72 74 90 130 69 @ 09:20 AM 29.89 10 0
ORCOrange City10:55 PM 66(81/64) 64 67 93 80 8G1425 @ 08:10 PM 29.89 10 0.09 2.73
OLZOELWEIN10:55 PM 68(75/61) 68 70 100 360 11G1920 @ 09:30 AM 29.98 3 0.07 0.4
TNUNEWTON MUNI10:55 PM 72(77/64) 68 74 87 140 825 @ 10:00 AM 29.9 10 0 0.38
MUTMUSCATINE10:55 PM 70(79/63) 66 72 87 130 431 @ 03:40 PM 29.92 10 0
MPZMOUNT PLEASANT10:55 PM 72(86/64) 68 74 87 140 525 @ 01:11 PM 29.91 10 0 0.78
MXOMONTICELLO MUNI10:55 PM 66(72/61) 66 68 100 90 819 @ 05:00 PM 29.94 7 0 1.13
LRJLE MARS10:55 PM 66(81/64) 64 67 93 100 1425 @ 08:30 PM 29.87 4 0.15 1.59
OXVKnoxville10:55 PM 73(84/64) 72 76 97 140 9G1419 @ 06:30 PM 29.87 10 0 0.05
EOKKEOKUK MUNI10:55 PM 75(90/68) 72 74 90 150 516 @ 06:40 PM 29.9 10 0 2.31
IFAIowa Falls10:55 PM 70(81/62) 67 72 90 70 632 @ 10:10 PM 29.96 10 0.01 1.12
IIBINDEPENDENCE10:55 PM 68(76/61) 66 70 93 120 823 @ 11:50 AM 29.92 10 0.11 0.19
HPTHampton10:55 PM 64(79/61) 64 66 100 110 630 @ 11:15 AM 29.9 5 0.57 2.57
HNRHARLAN10:55 PM 77(86/64) 70 79 79 190 719 @ 03:50 PM 29.84 10 0 0.03
GGIGrinnell10:55 PM 72(78/62) 66 73 81 120 722 @ 10:25 AM 29.92 10 0 0.14
FXYForest City10:55 PM 66(70/63) 66 68 100 120 323 @ 09:30 AM 29.94 10 0.02 1.79
FSWFORT MADISON10:55 PM 73(90/66) 70 75 90 150 718 @ 05:50 PM 29.92 10 0
FODFORT DODGE10:56 PM 66(83/61) 64 67 93 30 928 @ 10:16 PM 29.96 9 0.51 1.22
FFLFAIRFIELD10:55 PM 72(82/64) 66 73 81 150 921 @ 04:55 PM 29.89 0 0.54
DNSDENISON10:55 PM 73(84/63) 72 76 97 60 10G1620 @ 02:10 PM 29.87 10 0
DEHDECORAH10:55 PM 64(68/59) 64 66 100 120 4G1018 @ 02:30 PM 29.97 3 0.04 0.72
CKPCherokee10:55 PM 65(82/62) 65 67 100 80 843 @ 09:35 PM 29.88 10 0.08 1.52
TVKCenterville10:45 PM 73(91/64) 73 100 0 019 @ 04:45 PM 29.91 10 0
CSQCRESTON10:55 PM 77(90/66) 70 79 79 180 718 @ 04:55 PM 29.89 10 0
CBFCOUNCIL BLUFFS10:55 PM 77(90/64) 70 79 79 170 619 @ 04:30 PM 29.83 10 0
CWICLINTON10:56 PM 67(73/61) 67 100 21 @ 01:26 PM 29.96 5 0 0.19
CAVCLARION10:55 PM 66(82/63) 64 67 93 80 9G1621 @ 09:40 PM 29.95 2 1 0.84
ICLCLARINDA10:55 PM 77(95/64) 68 79 74 190 520 @ 03:20 PM 29.87 10 0
CCYCHARLES CITY11:00 PM 66(73/61) 64 67 93 140 523 @ 02:00 PM 29.96 4 0 1.39
CNCCHARITON10:55 PM 75(86/64) 72 74 90 140 616 @ 02:50 PM 29.88 10 0 0.27
CINCARROLL10:55 PM 73(84/64) 72 76 97 40 15G2323 @ 10:55 PM 29.89 10 0 0.0001
BNWBOONE MUNI10:55 PM 72(79/64) 68 74 87 90 1022 @ 02:30 PM 29.89 10 0 0.45
ADUAUDUBON10:55 PM 73(82/64) 70 90 0 017 @ 04:15 PM 29.87 7 0 0.04
AIOATLANTIC10:55 PM 77(86/64) 70 79 79 190 717 @ 06:30 PM 29.84 10 0 0.03
IKVANKENY10:55 PM 72(81/64) 68 74 87 140 515 @ 03:30 PM 29.89 10 0 0.03
AXAALGONA10:55 PM 68(73/63) 66 70 93 100 823 @ 09:15 AM 29.92 9 0 0.79